createdAt,value
2019-02-18T00:01:54.128Z,18.23
2019-02-18T00:06:56.225Z,21.77
2019-02-18T00:11:58.107Z,22.10
2019-02-18T00:17:00.901Z,20.53
2019-02-18T00:22:04.107Z,21.83
2019-02-18T00:27:06.143Z,20.40
2019-02-18T00:32:08.059Z,23.53
2019-02-18T00:37:10.051Z,21.33
2019-02-18T00:42:11.983Z,20.30
2019-02-18T00:47:14.020Z,19.20
2019-02-18T00:52:15.903Z,19.83
2019-02-18T00:57:17.839Z,22.80
2019-02-18T01:02:19.851Z,22.47
2019-02-18T01:07:21.739Z,22.20
2019-02-18T01:12:23.743Z,21.83
2019-02-18T01:17:25.941Z,22.33
2019-02-18T01:22:28.036Z,19.90
2019-02-18T01:27:29.946Z,22.53
2019-02-18T01:32:31.980Z,21.23
2019-02-18T01:37:33.902Z,24.10
2019-02-18T01:42:35.804Z,24.13
2019-02-18T01:47:37.806Z,22.60
2019-02-18T01:52:39.788Z,24.73
2019-02-18T01:57:41.704Z,22.77
2019-02-18T02:02:43.882Z,23.30
2019-02-18T02:07:55.528Z,22.27
2019-02-18T02:12:49.624Z,23.77
2019-02-18T02:17:51.632Z,23.47
2019-02-18T02:22:54.567Z,20.33
2019-02-18T02:27:56.511Z,23.27
2019-02-18T02:32:58.421Z,23.90
2019-02-18T02:38:07.667Z,24.47
2019-02-18T02:43:04.316Z,21.53
2019-02-18T02:48:06.770Z,21.77
2019-02-18T02:53:11.931Z,21.47
2019-02-18T02:58:15.349Z,25.23
2019-02-18T03:03:17.564Z,20.03
2019-02-18T03:08:20.798Z,22.00
2019-02-18T03:13:22.966Z,20.50
2019-02-18T03:18:24.892Z,24.87
2019-02-18T03:23:26.776Z,21.53
2019-02-18T03:29:09.542Z,22.30
2019-02-18T03:34:15.816Z,21.07
2019-02-18T03:39:17.721Z,22.53
2019-02-18T03:44:19.636Z,21.43
2019-02-18T03:49:21.869Z,21.40
2019-02-18T03:54:23.775Z,20.90
2019-02-18T03:59:25.707Z,20.40
2019-02-18T04:04:27.752Z,24.23
2019-02-18T04:09:32.118Z,20.40
2019-02-18T04:14:34.124Z,21.70
2019-02-18T04:19:36.041Z,24.80
2019-02-18T04:24:37.938Z,24.73
2019-02-18T04:29:41.983Z,24.43
2019-02-18T04:34:43.909Z,28.80
2019-02-18T04:39:45.861Z,25.77
2019-02-18T04:44:48.904Z,28.00
2019-02-18T04:49:50.817Z,26.47
2019-02-18T04:54:52.814Z,21.93
2019-02-18T04:59:54.916Z,25.07
2019-02-18T05:04:57.211Z,23.10
2019-02-18T05:09:59.130Z,28.07
2019-02-18T05:15:01.383Z,24.30
2019-02-18T05:20:03.880Z,24.27
2019-02-18T05:25:06.799Z,20.40
2019-02-18T05:30:09.418Z,21.40
2019-02-18T05:35:11.435Z,22.17
2019-02-18T05:40:13.371Z,21.20
2019-02-18T05:45:15.365Z,25.20
2019-02-18T05:50:17.254Z,22.93
2019-02-18T05:55:19.299Z,22.33
2019-02-18T06:00:21.199Z,26.10
2019-02-18T06:05:23.113Z,26.13
2019-02-18T06:10:26.118Z,21.13
2019-02-18T06:15:28.027Z,20.93
2019-02-18T06:20:30.449Z,23.77
2019-02-18T06:25:32.398Z,19.20
2019-02-18T06:30:34.325Z,22.33
2019-02-18T06:35:36.359Z,25.33
2019-02-18T06:40:38.266Z,24.27
2019-02-18T06:45:49.142Z,24.63
2019-02-18T06:50:51.090Z,23.43
2019-02-18T06:55:53.001Z,20.90
2019-02-18T07:01:09.945Z,22.13
2019-02-18T07:06:27.042Z,21.40
2019-02-18T07:11:33.465Z,26.17
2019-02-18T07:16:35.383Z,23.33
2019-02-18T07:21:37.293Z,21.87
2019-02-18T07:26:39.314Z,22.40
2019-02-18T07:31:41.411Z,22.37
2019-02-18T07:36:43.501Z,23.07
2019-02-18T07:41:45.558Z,22.13
2019-02-18T07:46:47.498Z,25.90
2019-02-18T07:51:49.406Z,24.70
2019-02-18T07:56:51.305Z,20.43
2019-02-18T08:01:53.270Z,20.67
2019-02-18T08:06:55.310Z,25.37
2019-02-18T08:11:57.195Z,19.27
2019-02-18T08:16:59.114Z,22.83
2019-02-18T08:22:01.135Z,23.37
2019-02-18T08:27:03.242Z,19.97
2019-02-18T08:32:06.538Z,20.47
2019-02-18T08:37:08.641Z,21.33
2019-02-18T08:42:10.587Z,23.50
2019-02-18T08:47:12.596Z,24.50
2019-02-18T08:52:14.494Z,22.93
2019-02-18T08:57:16.711Z,23.40
2019-02-18T09:02:18.689Z,29.90
2019-02-18T09:07:21.699Z,24.47
2019-02-18T09:12:23.565Z,24.70
2019-02-18T09:17:25.574Z,24.43
2019-02-18T09:22:56.190Z,23.10
2019-02-18T09:28:00.057Z,22.57
2019-02-18T09:33:01.990Z,26.60
2019-02-18T09:38:11.268Z,22.27
2019-02-18T09:43:13.426Z,24.13
2019-02-18T09:48:15.531Z,24.50
2019-02-18T09:53:17.673Z,23.40
2019-02-18T09:58:34.766Z,25.40
2019-02-18T10:03:36.731Z,25.57
2019-02-18T10:08:38.622Z,23.30
2019-02-18T10:13:40.562Z,25.33
2019-02-18T10:18:42.654Z,24.27
2019-02-18T10:23:44.586Z,25.27
2019-02-18T10:28:46.496Z,25.37
2019-02-18T10:33:48.448Z,26.97
2019-02-18T10:38:50.555Z,27.40
2019-02-18T10:43:54.735Z,24.20
2019-02-18T10:48:56.306Z,25.80
2019-02-18T10:53:58.215Z,24.03
2019-02-18T10:59:02.043Z,23.67
2019-02-18T11:04:03.956Z,25.10
2019-02-18T11:09:07.655Z,28.50
2019-02-18T11:14:09.687Z,28.73
2019-02-18T11:19:11.971Z,26.73
2019-02-18T11:24:13.874Z,28.43
2019-02-18T11:29:15.934Z,26.63
2019-02-18T11:34:17.838Z,27.80
2019-02-18T11:39:19.855Z,28.20
2019-02-18T11:44:21.782Z,25.37
2019-02-18T11:49:24.178Z,26.47
2019-02-18T11:54:27.282Z,27.03
2019-02-18T11:59:29.199Z,26.83
2019-02-18T12:04:31.151Z,28.63
2019-02-18T12:09:33.433Z,26.07
2019-02-18T12:14:35.348Z,24.80
2019-02-18T12:19:37.507Z,26.70
2019-02-18T12:24:39.414Z,24.33
2019-02-18T12:29:41.337Z,26.63
2019-02-18T12:34:43.259Z,25.80
2019-02-18T12:39:45.186Z,29.07
2019-02-18T12:44:47.134Z,27.43
2019-02-18T12:49:50.978Z,28.53
2019-02-18T12:54:52.906Z,26.00
2019-02-18T12:59:55.315Z,23.67
2019-02-18T13:04:57.906Z,24.10
2019-02-18T13:09:59.903Z,24.87
2019-02-18T13:15:03.516Z,22.97
2019-02-18T13:20:07.628Z,28.07
2019-02-18T13:25:10.240Z,26.50
2019-02-18T13:30:13.908Z,23.67
2019-02-18T13:35:15.861Z,22.70
2019-02-18T13:40:17.859Z,20.43
2019-02-18T13:45:20.204Z,25.13
2019-02-18T13:50:22.395Z,24.63
2019-02-18T13:55:24.435Z,23.87
2019-02-18T14:00:26.622Z,23.13
2019-02-18T14:05:28.646Z,24.87
2019-02-18T14:10:30.671Z,24.07
2019-02-18T14:15:32.682Z,21.70
2019-02-18T14:20:34.773Z,23.17
2019-02-18T14:25:36.682Z,23.33
2019-02-18T14:30:38.808Z,23.00
2019-02-18T14:35:41.206Z,47.23
2019-02-18T14:40:43.220Z,68.30
2019-02-18T14:45:46.391Z,52.77
2019-02-18T14:50:56.334Z,94.70
2019-02-18T14:55:52.527Z,151.90
2019-02-18T15:00:54.573Z,118.03
2019-02-18T15:05:58.048Z,35.75
2019-02-18T15:11:00.083Z,17.57
2019-02-18T15:16:02.730Z,17.60
2019-02-18T15:21:04.723Z,17.90
2019-02-18T15:26:06.659Z,20.25
2019-02-18T15:31:08.569Z,14.93
2019-02-18T15:36:10.662Z,17.80
2019-02-18T15:41:12.969Z,15.63
2019-02-18T15:46:15.149Z,15.75
2019-02-18T15:51:17.229Z,15.05
2019-02-18T15:56:19.358Z,15.48
2019-02-18T16:01:21.375Z,16.30
2019-02-18T16:06:23.295Z,16.93
2019-02-18T16:11:25.227Z,16.43
2019-02-18T16:16:27.119Z,19.53
2019-02-18T16:21:29.413Z,16.33
2019-02-18T16:26:31.450Z,19.50
2019-02-18T16:31:33.342Z,17.80
2019-02-18T16:36:35.946Z,17.23
2019-02-18T16:41:39.192Z,19.30
2019-02-18T16:46:41.106Z,17.03
2019-02-18T16:51:43.401Z,18.47
2019-02-18T16:56:46.733Z,15.90
2019-02-18T17:01:48.665Z,18.20
2019-02-18T17:06:51.636Z,16.10
2019-02-18T17:11:53.945Z,36.20
2019-02-18T17:16:55.942Z,24.90
2019-02-18T17:21:58.870Z,17.90
2019-02-18T17:27:00.775Z,28.57
2019-02-18T17:32:02.664Z,22.83
2019-02-18T17:37:04.770Z,17.70
2019-02-18T17:42:06.664Z,22.03
2019-02-18T17:47:09.716Z,19.57
2019-02-18T17:52:12.121Z,18.07
2019-02-18T17:57:14.030Z,18.50
2019-02-18T18:02:16.083Z,18.07
2019-02-18T18:07:18.119Z,18.77
2019-02-18T18:12:20.070Z,15.43
2019-02-18T18:17:22.095Z,16.23
2019-02-18T18:22:24.175Z,17.73
2019-02-18T18:27:26.186Z,16.43
2019-02-18T18:32:28.090Z,17.57
2019-02-18T18:37:30.034Z,19.37
2019-02-18T18:42:32.577Z,17.20
2019-02-18T18:47:34.505Z,17.77
2019-02-18T18:52:36.391Z,17.27
2019-02-18T18:57:38.604Z,18.13
2019-02-18T19:02:40.668Z,19.23
2019-02-18T19:07:42.583Z,21.70
2019-02-18T19:12:44.744Z,19.93
2019-02-18T19:17:46.629Z,24.33
2019-02-18T19:22:48.921Z,23.83
2019-02-18T19:27:50.958Z,21.73
2019-02-18T19:32:53.340Z,22.33
2019-02-18T19:37:55.412Z,27.63
2019-02-18T19:42:58.505Z,22.47
2019-02-18T19:48:00.614Z,26.07
2019-02-18T19:53:03.613Z,21.27
2019-02-18T19:58:05.753Z,24.97
2019-02-18T20:03:07.647Z,24.07
2019-02-18T20:08:09.578Z,62.33
2019-02-18T20:13:11.887Z,25.10
2019-02-18T20:18:15.150Z,25.83
2019-02-18T20:23:17.130Z,22.17
2019-02-18T20:28:28.197Z,19.33
2019-02-18T20:33:30.410Z,19.17
2019-02-18T20:38:32.446Z,23.37
2019-02-18T20:43:35.393Z,28.47
2019-02-18T20:48:37.855Z,27.83
2019-02-18T20:53:40.134Z,22.10
2019-02-18T20:58:42.037Z,21.40
2019-02-18T21:03:43.961Z,22.47
2019-02-18T21:08:45.972Z,20.90
2019-02-18T21:13:47.870Z,20.00
2019-02-18T21:18:49.768Z,20.47
2019-02-18T21:23:51.707Z,21.27
2019-02-18T21:28:53.643Z,19.40
2019-02-18T21:33:55.821Z,22.43
2019-02-18T21:39:00.206Z,20.13
2019-02-18T21:44:02.152Z,19.60
2019-02-18T21:49:04.057Z,22.60
2019-02-18T21:54:07.632Z,16.60
2019-02-18T21:59:09.659Z,17.60
2019-02-18T22:04:11.537Z,21.43
2019-02-18T22:09:14.511Z,20.37
2019-02-18T22:14:16.805Z,20.47
2019-02-18T22:19:19.049Z,20.63
2019-02-18T22:24:21.162Z,20.23
2019-02-18T22:29:23.304Z,21.23
2019-02-18T22:34:25.435Z,21.37
2019-02-18T22:39:28.724Z,18.37
2019-02-18T22:44:30.878Z,18.63
2019-02-18T22:49:32.767Z,16.60
2019-02-18T22:54:34.657Z,18.03
2019-02-18T22:59:36.866Z,17.53
2019-02-18T23:04:38.856Z,17.63
2019-02-18T23:09:40.888Z,21.60
2019-02-18T23:14:50.306Z,18.80
2019-02-18T23:19:47.032Z,17.37
2019-02-18T23:24:48.916Z,16.50
2019-02-18T23:29:50.909Z,16.53
2019-02-18T23:34:52.805Z,20.27
2019-02-18T23:39:54.734Z,22.40
2019-02-18T23:44:59.340Z,19.43
2019-02-18T23:50:00.537Z,25.70
2019-02-18T23:55:03.465Z,22.63
